createdAt,value
2023-05-16T00:00:15.145Z,94628.00
2023-05-16T00:01:15.150Z,94629.00
2023-05-16T00:02:15.134Z,94628.00
2023-05-16T00:03:15.245Z,94628.00
2023-05-16T00:04:15.251Z,94627.00
2023-05-16T00:05:15.113Z,94625.00
2023-05-16T00:06:15.093Z,94625.00
2023-05-16T00:07:15.145Z,94625.00
2023-05-16T00:08:15.130Z,94623.00
2023-05-16T00:09:15.170Z,94621.00
2023-05-16T00:10:15.182Z,94620.00
2023-05-16T00:11:15.239Z,94619.00
2023-05-16T00:12:15.258Z,94616.00
2023-05-16T00:13:15.260Z,94616.00
2023-05-16T00:14:15.328Z,94613.00
2023-05-16T00:15:15.350Z,94616.00
2023-05-16T00:16:15.417Z,94614.00
2023-05-16T00:17:15.486Z,94615.00
2023-05-16T00:18:15.431Z,94613.00
2023-05-16T00:19:15.586Z,94613.00
2023-05-16T00:20:15.486Z,94613.00
2023-05-16T00:21:15.487Z,94610.00
2023-05-16T00:22:15.501Z,94609.00
2023-05-16T00:23:15.602Z,94606.00
2023-05-16T00:24:15.555Z,94609.00
2023-05-16T00:25:15.622Z,94604.00
2023-05-16T00:26:15.634Z,94603.00
2023-05-16T00:27:15.637Z,94603.00
2023-05-16T00:28:15.695Z,94602.00
2023-05-16T00:29:15.676Z,94602.00
2023-05-16T00:30:15.730Z,94601.00
2023-05-16T00:31:15.988Z,94601.00
2023-05-16T00:32:15.865Z,94599.00
2023-05-16T00:33:15.996Z,94597.00
2023-05-16T00:34:15.947Z,94599.00
2023-05-16T00:35:15.861Z,94600.00
2023-05-16T00:36:15.903Z,94598.00
2023-05-16T00:37:15.932Z,94597.00
2023-05-16T00:38:16.007Z,94597.00
2023-05-16T00:39:16.000Z,94597.00
2023-05-16T00:40:16.025Z,94598.00
2023-05-16T00:41:16.032Z,94598.00
2023-05-16T00:42:16.046Z,94598.00
2023-05-16T00:43:16.096Z,94599.00
2023-05-16T00:44:16.094Z,94598.00
2023-05-16T00:45:16.119Z,94596.00
2023-05-16T00:46:16.207Z,94597.00
2023-05-16T00:47:16.202Z,94596.00
2023-05-16T00:48:16.277Z,94596.00
2023-05-16T00:49:16.261Z,94596.00
2023-05-16T00:50:16.300Z,94596.00
2023-05-16T00:51:16.324Z,94597.00
2023-05-16T00:52:16.353Z,94598.00
2023-05-16T00:53:17.273Z,94599.00
2023-05-16T00:54:16.399Z,94601.00
2023-05-16T00:55:16.469Z,94600.00
2023-05-16T00:56:16.499Z,94598.00
2023-05-16T00:57:16.521Z,94598.00
2023-05-16T00:58:16.551Z,94599.00
2023-05-16T00:59:16.560Z,94597.00
2023-05-16T01:00:16.622Z,94599.00
2023-05-16T01:01:16.639Z,94597.00
2023-05-16T01:02:16.687Z,94596.00
2023-05-16T01:03:16.788Z,94596.00
2023-05-16T01:04:16.741Z,94595.00
2023-05-16T01:05:16.742Z,94593.00
2023-05-16T01:06:16.758Z,94590.00
2023-05-16T01:07:16.798Z,94589.00
2023-05-16T01:08:16.811Z,94588.00
2023-05-16T01:09:16.869Z,94589.00
2023-05-16T01:10:16.893Z,94588.00
2023-05-16T01:11:16.901Z,94588.00
2023-05-16T01:12:16.880Z,94587.00
2023-05-16T01:13:16.972Z,94587.00
2023-05-16T01:14:16.958Z,94587.00
2023-05-16T01:15:17.014Z,94591.00
2023-05-16T01:16:17.039Z,94590.00
2023-05-16T01:17:17.053Z,94587.00
2023-05-16T01:18:17.090Z,94588.00
2023-05-16T01:19:17.113Z,94588.00
2023-05-16T01:20:17.134Z,94588.00
2023-05-16T01:21:17.141Z,94585.00
2023-05-16T01:22:17.235Z,94585.00
2023-05-16T01:23:17.284Z,94586.00
2023-05-16T01:24:17.323Z,94586.00
2023-05-16T01:25:17.345Z,94586.00
2023-05-16T01:26:17.463Z,94587.00
2023-05-16T01:27:17.480Z,94588.00
2023-05-16T01:28:17.564Z,94588.00
2023-05-16T01:29:17.621Z,94589.00
2023-05-16T01:30:17.691Z,94588.00
2023-05-16T01:31:17.808Z,94587.00
2023-05-16T01:32:17.824Z,94589.00
2023-05-16T01:33:17.882Z,94590.00
2023-05-16T01:34:17.952Z,94588.00
2023-05-16T01:35:18.020Z,94589.00
2023-05-16T01:36:18.059Z,94585.00
2023-05-16T01:37:18.086Z,94585.00
2023-05-16T01:38:18.191Z,94582.00
2023-05-16T01:39:18.270Z,94582.00
2023-05-16T01:40:18.279Z,94582.00
2023-05-16T01:41:18.310Z,94582.00
2023-05-16T01:42:18.368Z,94583.00
2023-05-16T01:43:18.398Z,94584.00
2023-05-16T01:44:19.210Z,94584.00
2023-05-16T01:45:18.516Z,94585.00
2023-05-16T01:46:18.600Z,94585.00
2023-05-16T01:47:18.603Z,94585.00
2023-05-16T01:48:18.641Z,94584.00
2023-05-16T01:49:18.698Z,94579.00
2023-05-16T01:50:18.729Z,94581.00
2023-05-16T01:51:18.787Z,94581.00
2023-05-16T01:52:18.758Z,94579.00
2023-05-16T01:53:18.851Z,94578.00
2023-05-16T01:54:18.879Z,94576.00
2023-05-16T01:55:18.970Z,94574.00
2023-05-16T01:56:18.980Z,94573.00
2023-05-16T01:57:19.011Z,94571.00
2023-05-16T01:58:19.046Z,94574.00
2023-05-16T01:59:19.089Z,94573.00
2023-05-16T02:00:19.155Z,94574.00
2023-05-16T02:01:19.239Z,94573.00
2023-05-16T02:02:19.476Z,94573.00
2023-05-16T02:03:19.290Z,94574.00
2023-05-16T02:04:19.394Z,94575.00
2023-05-16T02:05:19.286Z,94575.00
2023-05-16T02:06:19.308Z,94573.00
2023-05-16T02:07:19.434Z,94573.00
2023-05-16T02:08:19.418Z,94571.00
2023-05-16T02:09:19.418Z,94568.00
2023-05-16T02:10:19.454Z,94567.00
2023-05-16T02:11:19.506Z,94567.00
2023-05-16T02:12:19.515Z,94569.00
2023-05-16T02:13:19.612Z,94569.00
2023-05-16T02:14:19.672Z,94570.00
2023-05-16T02:15:19.682Z,94572.00
2023-05-16T02:16:19.796Z,94571.00
2023-05-16T02:17:19.883Z,94571.00
2023-05-16T02:18:19.811Z,94571.00
2023-05-16T02:19:20.017Z,94568.00
2023-05-16T02:20:19.921Z,94565.00
2023-05-16T02:21:19.935Z,94563.00
2023-05-16T02:22:19.987Z,94562.00
2023-05-16T02:23:19.988Z,94563.00
2023-05-16T02:24:19.988Z,94560.00
2023-05-16T02:25:20.029Z,94560.00
2023-05-16T02:26:20.028Z,94559.00
2023-05-16T02:27:20.059Z,94558.00
2023-05-16T02:28:20.131Z,94557.00
2023-05-16T02:29:20.163Z,94557.00
2023-05-16T02:30:20.236Z,94555.00
2023-05-16T02:31:20.287Z,94554.00
2023-05-16T02:32:20.381Z,94555.00
2023-05-16T02:33:20.397Z,94552.00
2023-05-16T02:34:20.431Z,94551.00
2023-05-16T02:35:20.483Z,94550.00
2023-05-16T02:36:20.535Z,94548.00
2023-05-16T02:37:20.549Z,94547.00
2023-05-16T02:38:20.637Z,94546.00
2023-05-16T02:39:20.713Z,94546.00
2023-05-16T02:40:20.773Z,94545.00
2023-05-16T02:41:20.797Z,94546.00
2023-05-16T02:42:20.929Z,94546.00
2023-05-16T02:43:20.921Z,94545.00
2023-05-16T02:44:20.948Z,94547.00
2023-05-16T02:45:20.973Z,94547.00
2023-05-16T02:46:21.044Z,94545.00
2023-05-16T02:47:21.194Z,94545.00
2023-05-16T02:48:21.134Z,94544.00
2023-05-16T02:49:21.143Z,94543.00
2023-05-16T02:50:21.200Z,94542.00
2023-05-16T02:51:21.273Z,94543.00
2023-05-16T02:52:21.301Z,94543.00
2023-05-16T02:53:21.362Z,94544.00
2023-05-16T02:54:21.425Z,94541.00
2023-05-16T02:55:22.530Z,94542.00
2023-05-16T02:56:21.532Z,94544.00
2023-05-16T02:57:21.586Z,94542.00
2023-05-16T02:58:21.659Z,94542.00
2023-05-16T02:59:21.713Z,94541.00
2023-05-16T03:00:21.733Z,94541.00
2023-05-16T03:01:21.752Z,94540.00
2023-05-16T03:02:21.897Z,94540.00
2023-05-16T03:03:21.950Z,94540.00
2023-05-16T03:04:21.903Z,94540.00
2023-05-16T03:05:21.867Z,94537.00
2023-05-16T03:06:21.903Z,94536.00
2023-05-16T03:07:21.915Z,94533.00
2023-05-16T03:08:21.970Z,94533.00
2023-05-16T03:09:22.004Z,94531.00
2023-05-16T03:10:22.045Z,94533.00
2023-05-16T03:11:22.088Z,94533.00
2023-05-16T03:12:22.107Z,94533.00
2023-05-16T03:13:22.146Z,94532.00
2023-05-16T03:14:22.208Z,94533.00
2023-05-16T03:15:22.244Z,94536.00
2023-05-16T03:16:22.286Z,94536.00
2023-05-16T03:17:22.330Z,94535.00
2023-05-16T03:18:22.362Z,94536.00
2023-05-16T03:19:22.451Z,94538.00
2023-05-16T03:20:22.449Z,94537.00
2023-05-16T03:21:22.478Z,94537.00
2023-05-16T03:22:22.518Z,94535.00
2023-05-16T03:23:22.554Z,94535.00
2023-05-16T03:24:22.691Z,94536.00
2023-05-16T03:25:22.639Z,94537.00
2023-05-16T03:26:22.687Z,94538.00
2023-05-16T03:27:22.707Z,94535.00
2023-05-16T03:28:22.765Z,94536.00
2023-05-16T03:29:22.802Z,94535.00
2023-05-16T03:30:22.857Z,94536.00
2023-05-16T03:31:22.912Z,94536.00
2023-05-16T03:32:22.904Z,94535.00
2023-05-16T03:33:22.946Z,94535.00
2023-05-16T03:34:22.995Z,94536.00
2023-05-16T03:35:23.029Z,94535.00
2023-05-16T03:36:23.067Z,94535.00
2023-05-16T03:37:23.097Z,94535.00
2023-05-16T03:38:23.164Z,94536.00
2023-05-16T03:39:23.193Z,94536.00
2023-05-16T03:40:23.259Z,94535.00
2023-05-16T03:41:23.312Z,94534.00
2023-05-16T03:42:23.322Z,94532.00
2023-05-16T03:43:23.394Z,94534.00
2023-05-16T03:44:23.411Z,94533.00
2023-05-16T03:45:23.489Z,94533.00
2023-05-16T03:46:23.801Z,94531.00
2023-05-16T03:47:23.561Z,94532.00
2023-05-16T03:48:23.571Z,94530.00
2023-05-16T03:49:23.711Z,94532.00
2023-05-16T03:50:23.675Z,94531.00
2023-05-16T03:51:25.487Z,94532.00
2023-05-16T03:52:23.734Z,94533.00
2023-05-16T03:53:23.781Z,94532.00
2023-05-16T03:54:23.812Z,94532.00
2023-05-16T03:55:23.879Z,94533.00
2023-05-16T03:56:23.910Z,94531.00
2023-05-16T03:57:23.941Z,94534.00
2023-05-16T03:58:24.005Z,94536.00
2023-05-16T03:59:24.045Z,94534.00
2023-05-16T04:00:24.093Z,94532.00
2023-05-16T04:01:24.144Z,94535.00
2023-05-16T04:02:24.230Z,94532.00
2023-05-16T04:03:24.287Z,94532.00
2023-05-16T04:04:24.275Z,94532.00
2023-05-16T04:05:24.357Z,94531.00
2023-05-16T04:06:24.399Z,94532.00
2023-05-16T04:07:24.411Z,94531.00
2023-05-16T04:08:24.467Z,94531.00
2023-05-16T04:09:24.521Z,94530.00
2023-05-16T04:10:24.628Z,94533.00
2023-05-16T04:11:24.629Z,94532.00
2023-05-16T04:12:24.685Z,94530.00
2023-05-16T04:13:24.746Z,94532.00
2023-05-16T04:14:24.736Z,94532.00
2023-05-16T04:15:24.949Z,94531.00
2023-05-16T04:16:24.935Z,94532.00
2023-05-16T04:17:24.917Z,94532.00
2023-05-16T04:18:24.968Z,94531.00
2023-05-16T04:19:25.031Z,94533.00
2023-05-16T04:20:25.065Z,94532.00
2023-05-16T04:21:25.084Z,94533.00
2023-05-16T04:22:25.114Z,94532.00
2023-05-16T04:23:25.191Z,94535.00
2023-05-16T04:24:25.241Z,94532.00
2023-05-16T04:25:25.431Z,94532.00
2023-05-16T04:26:25.340Z,94529.00
2023-05-16T04:27:25.395Z,94530.00
2023-05-16T04:28:25.433Z,94528.00
2023-05-16T04:29:25.473Z,94526.00
2023-05-16T04:30:25.504Z,94526.00
2023-05-16T04:31:25.596Z,94527.00
2023-05-16T04:32:25.646Z,94526.00
2023-05-16T04:33:25.683Z,94527.00
2023-05-16T04:34:25.715Z,94527.00
2023-05-16T04:35:26.088Z,94530.00
2023-05-16T04:36:25.819Z,94529.00
2023-05-16T04:37:25.855Z,94529.00
2023-05-16T04:38:25.898Z,94529.00
2023-05-16T04:39:25.960Z,94531.00
2023-05-16T04:40:26.035Z,94531.00
2023-05-16T04:41:26.038Z,94531.00
2023-05-16T04:42:26.082Z,94531.00
2023-05-16T04:43:26.096Z,94531.00
2023-05-16T04:44:26.139Z,94531.00
2023-05-16T04:45:26.523Z,94532.00
2023-05-16T04:46:26.344Z,94530.00
2023-05-16T04:47:26.328Z,94532.00
2023-05-16T04:48:26.336Z,94530.00
2023-05-16T04:49:26.386Z,94531.00
2023-05-16T04:50:26.489Z,94531.00
2023-05-16T04:51:26.501Z,94535.00
2023-05-16T04:52:26.567Z,94534.00
2023-05-16T04:53:26.600Z,94536.00
2023-05-16T04:54:26.710Z,94537.00
2023-05-16T04:55:27.003Z,94537.00
2023-05-16T04:56:26.744Z,94537.00
2023-05-16T04:57:26.787Z,94538.00
2023-05-16T04:58:26.814Z,94539.00
2023-05-16T04:59:26.933Z,94540.00
2023-05-16T05:00:27.228Z,94539.00
2023-05-16T05:01:27.075Z,94539.00
2023-05-16T05:02:27.065Z,94540.00
2023-05-16T05:03:27.838Z,94539.00
2023-05-16T05:04:27.202Z,94539.00
2023-05-16T05:05:27.672Z,94541.00
2023-05-16T05:06:27.227Z,94539.00
2023-05-16T05:07:27.324Z,94539.00
2023-05-16T05:08:27.285Z,94539.00
2023-05-16T05:09:27.359Z,94541.00
2023-05-16T05:10:27.398Z,94540.00
2023-05-16T05:11:27.465Z,94544.00
2023-05-16T05:12:27.488Z,94544.00
2023-05-16T05:13:27.510Z,94547.00
2023-05-16T05:14:27.542Z,94545.00
2023-05-16T05:15:28.081Z,94544.00
2023-05-16T05:16:27.739Z,94543.00
2023-05-16T05:17:27.877Z,94544.00
2023-05-16T05:18:27.822Z,94543.00
2023-05-16T05:19:27.855Z,94544.00
2023-05-16T05:20:27.874Z,94542.00
2023-05-16T05:21:27.878Z,94543.00
2023-05-16T05:22:27.934Z,94540.00
2023-05-16T05:23:27.990Z,94542.00
2023-05-16T05:24:28.020Z,94543.00
2023-05-16T05:25:28.313Z,94543.00
2023-05-16T05:26:28.104Z,94542.00
2023-05-16T05:27:28.124Z,94543.00
2023-05-16T05:28:28.310Z,94543.00
2023-05-16T05:29:28.255Z,94545.00
2023-05-16T05:30:28.306Z,94543.00
2023-05-16T05:31:28.384Z,94540.00
2023-05-16T05:32:28.407Z,94539.00
2023-05-16T05:33:28.452Z,94540.00
2023-05-16T05:34:28.486Z,94540.00
2023-05-16T05:35:28.800Z,94538.00
2023-05-16T05:36:28.610Z,94537.00
2023-05-16T05:37:28.624Z,94536.00
2023-05-16T05:38:28.698Z,94535.00
2023-05-16T05:39:28.704Z,94535.00
2023-05-16T05:40:28.777Z,94537.00
2023-05-16T05:41:28.825Z,94537.00
2023-05-16T05:42:28.900Z,94535.00
2023-05-16T05:43:28.932Z,94533.00
2023-05-16T05:44:28.957Z,94535.00
2023-05-16T05:45:29.256Z,94538.00
2023-05-16T05:46:29.119Z,94536.00
2023-05-16T05:47:29.120Z,94533.00
2023-05-16T05:48:29.107Z,94532.00
2023-05-16T05:49:29.149Z,94533.00
2023-05-16T05:50:29.272Z,94534.00
2023-05-16T05:51:29.277Z,94534.00
2023-05-16T05:52:29.255Z,94532.00
2023-05-16T05:53:29.326Z,94531.00
2023-05-16T05:54:29.380Z,94531.00
2023-05-16T05:55:29.657Z,94529.00
2023-05-16T05:56:29.425Z,94531.00
2023-05-16T05:57:29.425Z,94532.00
2023-05-16T05:58:30.371Z,94530.00
2023-05-16T05:59:29.547Z,94531.00
2023-05-16T06:00:29.598Z,94533.00
2023-05-16T06:01:29.565Z,94530.00
2023-05-16T06:02:29.721Z,94530.00
2023-05-16T06:03:29.603Z,94530.00
2023-05-16T06:04:29.611Z,94529.00
2023-05-16T06:05:29.905Z,94530.00
2023-05-16T06:06:29.631Z,94531.00
2023-05-16T06:07:29.660Z,94532.00
2023-05-16T06:08:29.709Z,94533.00
2023-05-16T06:09:29.709Z,94532.00
2023-05-16T06:10:29.773Z,94533.00
2023-05-16T06:11:29.752Z,94534.00
2023-05-16T06:12:29.775Z,94533.00
2023-05-16T06:13:29.782Z,94536.00
2023-05-16T06:14:29.791Z,94538.00
2023-05-16T06:15:29.957Z,94536.00
2023-05-16T06:16:29.876Z,94539.00
2023-05-16T06:17:29.853Z,94540.00
2023-05-16T06:18:29.965Z,94540.00
2023-05-16T06:19:29.893Z,94542.00
2023-05-16T06:20:29.948Z,94541.00
2023-05-16T06:21:29.980Z,94540.00
2023-05-16T06:22:30.031Z,94540.00
2023-05-16T06:23:30.058Z,94538.00
2023-05-16T06:24:30.078Z,94539.00
2023-05-16T06:25:30.260Z,94540.00
2023-05-16T06:26:30.164Z,94538.00
2023-05-16T06:27:30.200Z,94537.00
2023-05-16T06:28:30.201Z,94540.00
2023-05-16T06:29:30.227Z,94538.00
2023-05-16T06:30:30.301Z,94540.00
2023-05-16T06:31:30.321Z,94540.00
2023-05-16T06:32:30.370Z,94542.00
2023-05-16T06:33:30.353Z,94541.00
2023-05-16T06:34:30.398Z,94542.00
2023-05-16T06:35:30.426Z,94543.00
2023-05-16T06:36:30.449Z,94543.00
2023-05-16T06:37:30.479Z,94544.00
2023-05-16T06:38:30.494Z,94545.00
2023-05-16T06:39:30.492Z,94545.00
2023-05-16T06:40:30.529Z,94543.00
2023-05-16T06:41:30.583Z,94543.00
2023-05-16T06:42:30.598Z,94544.00
2023-05-16T06:43:30.574Z,94545.00
2023-05-16T06:44:30.616Z,94545.00
2023-05-16T06:45:30.754Z,94544.00
2023-05-16T06:46:30.713Z,94541.00
2023-05-16T06:47:30.748Z,94545.00
2023-05-16T06:48:30.765Z,94542.00
2023-05-16T06:49:30.719Z,94542.00
2023-05-16T06:50:30.745Z,94540.00
2023-05-16T06:51:30.758Z,94543.00
2023-05-16T06:52:30.731Z,94543.00
2023-05-16T06:53:30.746Z,94546.00
2023-05-16T06:54:30.808Z,94546.00
2023-05-16T06:55:30.837Z,94545.00
2023-05-16T06:56:30.798Z,94541.00
2023-05-16T06:57:30.804Z,94542.00
2023-05-16T06:58:30.800Z,94539.00
2023-05-16T06:59:30.819Z,94538.00
2023-05-16T07:00:30.911Z,94538.00
2023-05-16T07:01:31.007Z,94535.00
2023-05-16T07:02:31.124Z,94533.00
2023-05-16T07:03:31.204Z,94530.00
2023-05-16T07:04:31.164Z,94529.00
2023-05-16T07:05:31.228Z,94531.00
2023-05-16T07:06:31.274Z,94529.00
2023-05-16T07:07:31.327Z,94528.00
2023-05-16T07:08:31.420Z,94530.00
2023-05-16T07:09:31.472Z,94530.00
2023-05-16T07:10:31.510Z,94533.00
2023-05-16T07:11:31.576Z,94532.00
2023-05-16T07:12:31.639Z,94532.00
2023-05-16T07:13:32.496Z,94534.00
2023-05-16T07:14:31.706Z,94533.00
2023-05-16T07:15:31.675Z,94534.00
2023-05-16T07:16:31.775Z,94535.00
2023-05-16T07:17:31.765Z,94534.00
2023-05-16T07:18:31.742Z,94533.00
2023-05-16T07:19:31.780Z,94532.00
2023-05-16T07:20:31.790Z,94532.00
2023-05-16T07:21:31.838Z,94531.00
2023-05-16T07:22:31.851Z,94530.00
2023-05-16T07:23:31.907Z,94534.00
2023-05-16T07:24:31.960Z,94534.00
2023-05-16T07:25:32.026Z,94535.00
2023-05-16T07:26:32.090Z,94536.00
2023-05-16T07:27:32.142Z,94538.00
2023-05-16T07:28:32.208Z,94539.00
2023-05-16T07:29:32.274Z,94542.00
2023-05-16T07:30:32.354Z,94543.00
2023-05-16T07:31:32.460Z,94546.00
2023-05-16T07:32:32.440Z,94546.00
2023-05-16T07:33:32.499Z,94548.00
2023-05-16T07:34:32.529Z,94550.00
2023-05-16T07:35:32.632Z,94551.00
2023-05-16T07:36:32.663Z,94552.00
2023-05-16T07:37:32.735Z,94552.00
2023-05-16T07:38:32.776Z,94552.00
2023-05-16T07:39:32.810Z,94553.00
2023-05-16T07:40:32.903Z,94550.00
2023-05-16T07:41:32.943Z,94551.00
2023-05-16T07:42:32.946Z,94550.00
2023-05-16T07:43:33.016Z,94549.00
2023-05-16T07:44:33.050Z,94548.00
2023-05-16T07:45:33.076Z,94549.00
2023-05-16T07:46:33.144Z,94547.00
2023-05-16T07:47:33.332Z,94547.00
2023-05-16T07:48:33.144Z,94547.00
2023-05-16T07:49:33.136Z,94544.00
2023-05-16T07:50:33.170Z,94542.00
2023-05-16T07:51:33.228Z,94542.00
2023-05-16T07:52:33.169Z,94543.00
2023-05-16T07:53:33.166Z,94545.00
2023-05-16T07:54:33.172Z,94546.00
2023-05-16T07:55:33.213Z,94546.00
2023-05-16T07:56:33.184Z,94547.00
2023-05-16T07:57:33.186Z,94551.00
2023-05-16T07:58:33.171Z,94552.00
2023-05-16T07:59:33.267Z,94554.00
2023-05-16T08:00:33.211Z,94553.00
2023-05-16T08:01:33.194Z,94552.00
2023-05-16T08:02:33.264Z,94552.00
2023-05-16T08:03:33.307Z,94551.00
2023-05-16T08:04:33.200Z,94552.00
2023-05-16T08:05:33.233Z,94553.00
2023-05-16T08:06:33.216Z,94550.00
2023-05-16T08:07:33.470Z,94550.00
2023-05-16T08:08:33.230Z,94551.00
2023-05-16T08:09:33.244Z,94552.00
2023-05-16T08:10:33.244Z,94553.00
2023-05-16T08:11:33.234Z,94549.00
2023-05-16T08:12:33.224Z,94550.00
2023-05-16T08:13:33.233Z,94544.00
2023-05-16T08:14:33.217Z,94542.00
2023-05-16T08:15:33.235Z,94539.00
2023-05-16T08:16:33.335Z,94539.00
2023-05-16T08:17:33.452Z,94534.00
2023-05-16T08:18:33.422Z,94533.00
2023-05-16T08:19:33.427Z,94536.00
2023-05-16T08:20:33.453Z,94536.00
2023-05-16T08:21:33.473Z,94532.00
2023-05-16T08:22:33.470Z,94531.00
2023-05-16T08:23:33.553Z,94538.00
2023-05-16T08:24:33.594Z,94537.00
2023-05-16T08:25:33.602Z,94539.00
2023-05-16T08:26:33.667Z,94539.00
2023-05-16T08:27:33.752Z,94537.00
2023-05-16T08:28:33.819Z,94537.00
2023-05-16T08:29:33.817Z,94534.00
2023-05-16T08:30:33.880Z,94536.00
2023-05-16T08:31:34.023Z,94533.00
2023-05-16T08:32:34.089Z,94532.00
2023-05-16T08:33:34.071Z,94533.00
2023-05-16T08:34:34.073Z,94535.00
2023-05-16T08:35:34.072Z,94535.00
2023-05-16T08:36:34.115Z,94533.00
2023-05-16T08:37:34.111Z,94527.00
2023-05-16T08:38:34.169Z,94529.00
2023-05-16T08:39:34.271Z,94531.00
2023-05-16T08:40:34.375Z,94532.00
2023-05-16T08:41:34.277Z,94530.00
2023-05-16T08:42:34.301Z,94527.00
2023-05-16T08:43:34.381Z,94525.00
2023-05-16T08:44:34.416Z,94522.00
2023-05-16T08:45:34.472Z,94524.00
2023-05-16T08:46:34.566Z,94526.00
2023-05-16T08:47:34.657Z,94527.00
2023-05-16T08:48:34.596Z,94524.00
2023-05-16T08:49:34.611Z,94525.00
2023-05-16T08:50:34.647Z,94523.00
2023-05-16T08:51:34.702Z,94521.00
2023-05-16T08:52:34.694Z,94521.00
2023-05-16T08:53:34.707Z,94519.00
2023-05-16T08:54:34.733Z,94515.00
2023-05-16T08:55:34.893Z,94513.00
2023-05-16T08:56:34.801Z,94509.00
2023-05-16T08:57:34.839Z,94509.00
2023-05-16T08:58:34.886Z,94508.00
2023-05-16T08:59:34.966Z,94505.00
2023-05-16T09:00:35.066Z,94502.00
2023-05-16T09:01:35.311Z,94497.00
2023-05-16T09:02:35.143Z,94494.00
2023-05-16T09:03:35.161Z,94491.00
2023-05-16T09:04:35.250Z,94493.00
2023-05-16T09:05:35.259Z,94491.00
2023-05-16T09:06:36.981Z,94491.00
2023-05-16T09:07:35.373Z,94488.00
2023-05-16T09:08:35.431Z,94490.00
2023-05-16T09:09:35.495Z,94493.00
2023-05-16T09:10:35.575Z,94493.00
2023-05-16T09:11:37.115Z,94495.00
2023-05-16T09:12:35.686Z,94498.00
2023-05-16T09:13:35.721Z,94498.00
2023-05-16T09:14:35.767Z,94501.00
2023-05-16T09:15:35.831Z,94500.00
2023-05-16T09:16:35.894Z,94500.00
2023-05-16T09:17:39.826Z,94499.00
2023-05-16T09:18:35.937Z,94501.00
2023-05-16T09:19:36.035Z,94502.00
2023-05-16T09:20:35.900Z,94504.00
2023-05-16T09:21:35.904Z,94504.00
2023-05-16T09:22:35.939Z,94505.00
2023-05-16T09:23:37.214Z,94504.00
2023-05-16T09:24:36.032Z,94505.00
2023-05-16T09:25:36.284Z,94505.00
2023-05-16T09:26:36.112Z,94503.00
2023-05-16T09:27:36.180Z,94502.00
2023-05-16T09:28:36.223Z,94500.00
2023-05-16T09:29:37.123Z,94501.00
2023-05-16T09:30:36.272Z,94501.00
2023-05-16T09:31:36.401Z,94499.00
2023-05-16T09:32:36.382Z,94501.00
2023-05-16T09:33:36.388Z,94505.00
2023-05-16T09:34:36.419Z,94507.00
2023-05-16T09:35:44.679Z,94509.00
2023-05-16T09:36:37.445Z,94511.00
2023-05-16T09:37:36.456Z,94512.00
2023-05-16T09:38:36.431Z,94512.00
2023-05-16T09:39:36.433Z,94513.00
2023-05-16T09:40:36.423Z,94515.00
2023-05-16T09:41:36.420Z,94514.00
2023-05-16T09:42:36.390Z,94516.00
2023-05-16T09:43:37.872Z,94514.00
2023-05-16T09:44:36.400Z,94515.00
2023-05-16T09:45:36.424Z,94516.00
2023-05-16T09:46:36.460Z,94514.00
2023-05-16T09:47:36.524Z,94513.00
2023-05-16T09:48:36.525Z,94515.00
2023-05-16T09:49:36.586Z,94513.00
2023-05-16T09:50:36.618Z,94512.00
2023-05-16T09:51:36.731Z,94511.00
2023-05-16T09:52:36.754Z,94511.00
2023-05-16T09:53:36.794Z,94510.00
2023-05-16T09:54:36.900Z,94509.00
2023-05-16T09:55:36.948Z,94509.00
2023-05-16T09:56:36.985Z,94508.00
2023-05-16T09:57:37.048Z,94507.00
2023-05-16T09:58:37.112Z,94507.00
2023-05-16T09:59:37.160Z,94508.00
2023-05-16T10:00:37.209Z,94509.00
2023-05-16T10:01:37.270Z,94510.00
2023-05-16T10:02:37.325Z,94514.00
2023-05-16T10:03:37.378Z,94514.00
2023-05-16T10:04:37.343Z,94513.00
2023-05-16T10:05:37.397Z,94514.00
2023-05-16T10:06:37.431Z,94515.00
2023-05-16T10:07:37.476Z,94516.00
2023-05-16T10:08:37.513Z,94513.00
2023-05-16T10:09:37.541Z,94518.00
2023-05-16T10:10:37.552Z,94517.00
2023-05-16T10:11:37.606Z,94521.00
2023-05-16T10:12:37.620Z,94520.00
2023-05-16T10:13:37.777Z,94522.00
2023-05-16T10:14:37.710Z,94522.00
2023-05-16T10:15:37.764Z,94524.00
2023-05-16T10:16:37.815Z,94523.00
2023-05-16T10:17:37.828Z,94524.00
2023-05-16T10:18:37.879Z,94526.00
2023-05-16T10:19:37.823Z,94524.00
2023-05-16T10:20:37.869Z,94527.00
2023-05-16T10:21:37.890Z,94528.00
2023-05-16T10:22:37.896Z,94530.00
2023-05-16T10:23:37.885Z,94527.00
2023-05-16T10:24:37.987Z,94527.00
2023-05-16T10:25:38.030Z,94526.00
2023-05-16T10:26:38.978Z,94523.00
2023-05-16T10:27:38.074Z,94523.00
2023-05-16T10:28:38.156Z,94523.00
2023-05-16T10:29:50.328Z,94524.00
2023-05-16T10:30:39.161Z,94524.00
2023-05-16T10:31:38.416Z,94525.00
2023-05-16T10:32:39.404Z,94521.00
2023-05-16T10:33:38.206Z,94521.00
2023-05-16T10:34:38.203Z,94521.00
2023-05-16T10:35:38.216Z,94519.00
2023-05-16T10:36:38.216Z,94523.00
2023-05-16T10:37:38.229Z,94524.00
2023-05-16T10:38:38.233Z,94530.00
2023-05-16T10:39:38.250Z,94531.00
2023-05-16T10:40:38.269Z,94532.00
2023-05-16T10:41:38.420Z,94535.00
2023-05-16T10:42:38.396Z,94533.00
2023-05-16T10:43:38.419Z,94534.00
2023-05-16T10:44:38.501Z,94534.00
2023-05-16T10:45:38.571Z,94535.00
2023-05-16T10:46:38.781Z,94533.00
2023-05-16T10:47:38.770Z,94534.00
2023-05-16T10:48:38.829Z,94533.00
2023-05-16T10:49:38.772Z,94534.00
2023-05-16T10:50:38.830Z,94536.00
2023-05-16T10:51:38.983Z,94535.00
2023-05-16T10:52:38.886Z,94535.00
2023-05-16T10:53:38.928Z,94536.00
2023-05-16T10:54:38.968Z,94536.00
2023-05-16T10:55:38.983Z,94536.00
2023-05-16T10:56:39.035Z,94536.00
2023-05-16T10:57:39.056Z,94534.00
2023-05-16T10:58:39.086Z,94537.00
2023-05-16T10:59:39.069Z,94535.00
2023-05-16T11:00:39.091Z,94540.00
2023-05-16T11:01:39.155Z,94540.00
2023-05-16T11:02:39.201Z,94541.00
2023-05-16T11:03:39.384Z,94543.00
2023-05-16T11:04:39.129Z,94544.00
2023-05-16T11:05:39.114Z,94545.00
2023-05-16T11:06:39.093Z,94545.00
2023-05-16T11:07:39.123Z,94543.00
2023-05-16T11:08:39.069Z,94544.00
2023-05-16T11:09:39.093Z,94544.00
2023-05-16T11:10:39.099Z,94542.00
2023-05-16T11:11:39.126Z,94543.00
2023-05-16T11:12:39.137Z,94543.00
2023-05-16T11:13:39.168Z,94542.00
2023-05-16T11:14:39.222Z,94543.00
2023-05-16T11:15:39.200Z,94542.00
2023-05-16T11:16:39.293Z,94540.00
2023-05-16T11:17:40.876Z,94543.00
2023-05-16T11:18:39.530Z,94538.00
2023-05-16T11:19:39.586Z,94538.00
2023-05-16T11:20:39.630Z,94536.00
2023-05-16T11:21:39.679Z,94530.00
2023-05-16T11:22:39.739Z,94529.00
2023-05-16T11:23:39.796Z,94528.00
2023-05-16T11:24:39.864Z,94528.00
2023-05-16T11:25:40.444Z,94526.00
2023-05-16T11:26:40.025Z,94523.00
2023-05-16T11:27:40.079Z,94522.00
2023-05-16T11:28:40.127Z,94523.00
2023-05-16T11:29:40.165Z,94525.00
2023-05-16T11:30:40.319Z,94524.00
2023-05-16T11:31:40.389Z,94522.00
2023-05-16T11:32:40.868Z,94524.00
2023-05-16T11:33:40.398Z,94522.00
2023-05-16T11:34:40.460Z,94522.00
2023-05-16T11:35:40.521Z,94521.00
2023-05-16T11:36:40.572Z,94520.00
2023-05-16T11:37:40.629Z,94517.00
2023-05-16T11:38:40.691Z,94519.00
2023-05-16T11:39:40.785Z,94517.00
2023-05-16T11:40:40.815Z,94512.00
2023-05-16T11:41:40.871Z,94512.00
2023-05-16T11:42:40.937Z,94512.00
2023-05-16T11:43:41.004Z,94512.00
2023-05-16T11:44:41.085Z,94510.00